Sunday, November 19, 2017, 9:06 AM EST
Back to Local

KILG, Wilmington New Castle Co

Location: New Castle, DE, United States Lat: 39.667
Local Time: 9:06 AM EST (14:06 GMT) Lon: -75.6
Time Zone: US/Eastern Elev: 78 ft

Show me the last for .
Show Decoded

2017-11-19 08:51 METAR KILG 191351Z 29017G32KT 10SM CLR 11/02 A2953 RMK AO2 PK WND 28033/1334
                 SLP001 T01060017 $ =
2017-11-19 07:51 METAR KILG 191251Z 28025G35KT 10SM CLR 09/02 A2948 RMK AO2 PK WND 28041/1154
                 SLP984 T00940022 $ =
2017-11-19 06:51 METAR KILG 191151Z 29025G34KT 10SM BKN085 11/04 A2941 RMK AO2 PK WND 28042/1110
                 RAE10 PRESRR SLP960 P0001 60031 70035 T01060044 10161 20106 53040 $ =
2017-11-19 06:16 METAR KILG 191116Z 28028G42KT 10SM FEW038 SCT070 OVC080 13/07 A2935 RMK AO2 PK
                 WND 28042/1110 RAE10 P0001 T01280072 $ =
2017-11-19 05:51 METAR KILG 191051Z AUTO 25025G32KT 9SM -RA FEW010 BKN040 OVC070 14/12 A2933 RMK
                 AO2 PK WND 25032/1046 PRESRR SLP931 P0014 T01440117 $ =
2017-11-19 05:37 METAR KILG 191037Z AUTO 24016G29KT 6SM -RA BR SCT014 SCT025 OVC070 14/12 A2931
                 RMK AO2 PK WND 24029/1029 P0014 T01440122 $ =
2017-11-19 05:25 METAR KILG 191025Z AUTO 25011G17KT 2 1/2SM R01/5000VP6000FT +RA BR BKN013 BKN018
                 OVC026 15/14 A2931 RMK AO2 P0002 T01500139 $ =
2017-11-19 04:51 METAR KILG 190951Z AUTO 22020G27KT 10SM -RA SCT018 BKN026 OVC060 15/13 A2930 RMK
                 AO2 PK WND 21027/0951 SLP920 P0002 T01500133 $ =
2017-11-19 04:36 METAR KILG 190936Z AUTO 22013G22KT 10SM -RA SCT019 BKN026 OVC080 15/13 A2930 RMK
                 AO2 P0002 T01500133 $ =
2017-11-19 04:10 METAR KILG 190910Z AUTO 21016G24KT 10SM -RA SCT016 BKN046 OVC095 15/13 A2930 RMK
                 AO2 P0000 T01500133 $ =
2017-11-19 03:51 METAR KILG 190851Z AUTO 20012G22KT 10SM -RA BKN016 OVC110 14/13 A2930 RMK AO2
                 SLP920 P0003 60014 T01440133 58029 $ =
2017-11-19 03:19 METAR KILG 190819Z AUTO 20011G21KT 10SM -RA SCT014 BKN055 OVC095 14/13 A2930 RMK
                 AO2 P0002 T01440133 $ =
2017-11-19 03:03 METAR KILG 190803Z AUTO 20015G20KT 8SM RA BKN016 OVC036 14/13 A2933 RMK AO2
                 PRESFR P0000 T01440133 $ =
2017-11-19 02:51 METAR KILG 190751Z AUTO 19010KT 9SM -RA SCT018 BKN032 OVC070 14/13 A2935 RMK AO2
                 SLP938 P0007 T01440133 $ =
2017-11-19 01:51 METAR KILG 190651Z AUTO 21013G20KT 6SM RA BR SCT070 BKN080 OVC095 15/13 A2937
                 RMK AO2 LTG DSNT S SLP944 P0004 T01500128 $ =
2017-11-19 00:51 METAR KILG 190551Z AUTO 20015G21KT 10SM -RA FEW055 SCT080 OVC100 16/11 A2938 RMK
                 AO2 RAB36 SLP949 P0000 60000 T01610111 10161 20111 56031 =
2017-11-18 23:51 METAR KILG 190451Z AUTO 19014G20KT 10SM CLR 16/11 A2941 RMK AO2 PK WND
                 21026/0408 SLP959 T01560106 401611017 =
2017-11-18 22:51 METAR KILG 190351Z 20014G25KT 10SM FEW065 FEW080 SCT110 16/10 A2943 RMK AO2
                 SLP964 T01610100 =
2017-11-18 21:51 METAR KILG 190251Z 19011G18KT 10SM CLR 14/09 A2948 RMK AO2 SLP981 60000
                 T01440089 57035 =
2017-11-18 20:51 METAR KILG 190151Z 20015KT 10SM CLR 14/08 A2951 RMK AO2 SLP993 T01440078 =
2017-11-18 19:51 METAR KILG 190051Z 18008KT 10SM FEW110 12/07 A2954 RMK AO2 RAB2357E10 SLP003
                 P0000 T01220067 =
2017-11-18 18:51 METAR KILG 182351Z 16009KT 10SM FEW100 11/07 A2958 RMK AO2 RAB06E29 SLP016 P0000
                 60004 T01110072 10133 20106 58024 =
2017-11-18 17:51 METAR KILG 182251Z 18006KT 10SM BKN080 BKN090 OVC110 11/07 A2962 RMK AO2 RAE33
                 SLP030 P0004 T01060067 =
2017-11-18 16:51 METAR KILG 182151Z 18010KT 10SM -RA OVC095 12/06 A2963 RMK AO2 RAB18 SLP034
                 P0000 T01220056 =
2017-11-18 15:51 METAR KILG 182051Z 19010KT 10SM BKN095 OVC120 13/04 A2965 RMK AO2 SLP039
                 T01330039 56035 =
2017-11-18 14:51 METAR KILG 181951Z 16009KT 10SM OVC090 12/06 A2968 RMK AO2 SLP049 T01170061 =
2017-11-18 13:51 METAR KILG 181851Z 16010KT 10SM SCT080 OVC090 11/05 A2972 RMK AO2 SLP063
                 T01110050 =
2017-11-18 12:51 METAR KILG 181751Z 16011KT 10SM SCT080 OVC095 11/04 A2975 RMK AO2 RAE1655 SLP075
                 P0000 60000 T01110044 10111 20028 58054 =
2017-11-18 11:51 METAR KILG 181651Z 16009KT 10SM -RA FEW080 OVC100 10/04 A2981 RMK AO2 RAB38
                 PRESFR SLP095 P0000 T01000039 =
2017-11-18 10:51 METAR KILG 181551Z 17011KT 10SM OVC100 10/03 A2987 RMK AO2 SLP113 T01000033 =
2017-11-18 09:51 METAR KILG 181451Z 18008KT 10SM CLR 08/03 A2991 RMK AO2 SLP128 T00780033 56020 =

Support USWX by starting your Amazon purchase here.